Portada
METAR-TAF:

METAR-TAF

Aeropuertos :

Sirri, Irán

latitud: 25-54-34N, longitud: 054-32-22E, altitud: 13 m

Observación

El informe se hizo hace 27 minutos, a las 02:00 UTC
Viento 12 kt del este-noreste
Temperatura 24°C
Humedad 50%
Presión 1015 hPa
Visibilidad: 6000 m
Escasas nubes a una altura de 2500 ft

METAR: OIBS 250200Z 06012KT 6000 FEW025 24/13 Q1015

Hora: 05:57 (02:27 UTC)


TAF: falta

Observaciones y pronósticos meteorológicos de más de 4000 aeropuertos (mensajes METAR y TAF).

Los puntos amarillos y rojos representan las estaciones disponibles.

Ponga el ratón en el punto deseado para ver el nombre de la estación.

Haga clic para ver las observaciones y los pronósticos meteorológicos.

Para cambiar el mapa : haga clic en los botones verdes con una cruz de color negro para hacer un zoom, en el botón verde con un guión para alejar o en las flechas verdes para mapas adyacentes.


METAR-TAF: